sensor_id;sensor_type;location;lat;lon;timestamp;P1;durP1;ratioP1;P2;durP2;ratioP2
69126;SDS011;56688;50.234;19.292;2022-07-23T00:00:29;15.90;;;11.50;;
69126;SDS011;56688;50.234;19.292;2022-07-23T00:03:04;19.30;;;12.30;;
69126;SDS011;56688;50.234;19.292;2022-07-23T00:05:31;16.80;;;13.10;;
69126;SDS011;56688;50.234;19.292;2022-07-23T00:08:01;19.70;;;12.70;;
69126;SDS011;56688;50.234;19.292;2022-07-23T00:10:28;17.00;;;12.90;;
69126;SDS011;56688;50.234;19.292;2022-07-23T00:12:55;16.70;;;11.90;;
69126;SDS011;56688;50.234;19.292;2022-07-23T00:15:22;18.30;;;11.70;;
69126;SDS011;56688;50.234;19.292;2022-07-23T00:17:49;15.20;;;12.50;;
69126;SDS011;56688;50.234;19.292;2022-07-23T00:20:16;16.00;;;12.10;;
69126;SDS011;56688;50.234;19.292;2022-07-23T00:22:45;15.90;;;12.30;;
69126;SDS011;56688;50.234;19.292;2022-07-23T00:25:13;14.70;;;12.40;;
69126;SDS011;56688;50.234;19.292;2022-07-23T00:27:58;16.70;;;12.60;;
69126;SDS011;56688;50.234;19.292;2022-07-23T00:30:26;18.60;;;12.60;;
69126;SDS011;56688;50.234;19.292;2022-07-23T00:32:57;17.90;;;12.50;;
69126;SDS011;56688;50.234;19.292;2022-07-23T00:35:29;14.40;;;11.30;;
69126;SDS011;56688;50.234;19.292;2022-07-23T00:37:58;16.80;;;12.40;;
69126;SDS011;56688;50.234;19.292;2022-07-23T00:40:27;20.40;;;13.20;;
69126;SDS011;56688;50.234;19.292;2022-07-23T00:42:55;19.70;;;13.00;;
69126;SDS011;56688;50.234;19.292;2022-07-23T00:45:23;24.80;;;12.70;;
69126;SDS011;56688;50.234;19.292;2022-07-23T00:47:49;15.20;;;12.50;;
69126;SDS011;56688;50.234;19.292;2022-07-23T00:50:16;18.90;;;13.90;;
69126;SDS011;56688;50.234;19.292;2022-07-23T00:52:43;17.60;;;12.90;;
69126;SDS011;56688;50.234;19.292;2022-07-23T00:55:11;17.30;;;12.70;;
69126;SDS011;56688;50.234;19.292;2022-07-23T00:57:40;18.20;;;14.50;;
69126;SDS011;56688;50.234;19.292;2022-07-23T01:00:09;18.00;;;13.70;;
69126;SDS011;56688;50.234;19.292;2022-07-23T01:02:39;16.30;;;12.90;;
69126;SDS011;56688;50.234;19.292;2022-07-23T01:05:07;17.90;;;14.00;;
69126;SDS011;56688;50.234;19.292;2022-07-23T01:07:35;20.70;;;14.30;;
69126;SDS011;56688;50.234;19.292;2022-07-23T01:10:04;18.60;;;13.10;;
69126;SDS011;56688;50.234;19.292;2022-07-23T01:12:51;19.20;;;13.90;;
69126;SDS011;56688;50.234;19.292;2022-07-23T01:15:19;16.80;;;13.40;;
69126;SDS011;56688;50.234;19.292;2022-07-23T01:17:46;18.20;;;13.50;;
69126;SDS011;56688;50.234;19.292;2022-07-23T01:20:13;18.50;;;13.80;;
69126;SDS011;56688;50.234;19.292;2022-07-23T01:22:40;19.20;;;14.00;;
69126;SDS011;56688;50.234;19.292;2022-07-23T01:25:07;16.70;;;13.80;;
69126;SDS011;56688;50.234;19.292;2022-07-23T01:27:36;17.20;;;12.40;;
69126;SDS011;56688;50.234;19.292;2022-07-23T01:30:03;19.80;;;13.90;;
69126;SDS011;56688;50.234;19.292;2022-07-23T01:32:32;15.60;;;13.20;;
69126;SDS011;56688;50.234;19.292;2022-07-23T01:34:59;15.60;;;13.00;;
69126;SDS011;56688;50.234;19.292;2022-07-23T01:37:26;18.20;;;13.80;;
69126;SDS011;56688;50.234;19.292;2022-07-23T01:39:54;17.60;;;13.50;;
69126;SDS011;56688;50.234;19.292;2022-07-23T01:42:22;21.00;;;13.30;;
69126;SDS011;56688;50.234;19.292;2022-07-23T01:44:50;18.30;;;13.30;;
69126;SDS011;56688;50.234;19.292;2022-07-23T01:47:19;20.50;;;12.90;;
69126;SDS011;56688;50.234;19.292;2022-07-23T01:49:48;19.80;;;13.30;;
69126;SDS011;56688;50.234;19.292;2022-07-23T01:52:32;16.40;;;12.90;;
69126;SDS011;56688;50.234;19.292;2022-07-23T01:54:59;17.40;;;12.90;;
69126;SDS011;56688;50.234;19.292;2022-07-23T01:57:26;16.60;;;13.10;;
69126;SDS011;56688;50.234;19.292;2022-07-23T01:59:53;16.30;;;13.10;;
69126;SDS011;56688;50.234;19.292;2022-07-23T02:02:20;18.00;;;13.30;;
69126;SDS011;56688;50.234;19.292;2022-07-23T02:04:47;17.20;;;13.60;;
69126;SDS011;56688;50.234;19.292;2022-07-23T02:07:15;16.80;;;12.80;;
69126;SDS011;56688;50.234;19.292;2022-07-23T02:09:42;18.90;;;13.60;;
69126;SDS011;56688;50.234;19.292;2022-07-23T02:12:11;17.60;;;13.30;;
69126;SDS011;56688;50.234;19.292;2022-07-23T02:14:38;16.50;;;13.60;;
69126;SDS011;56688;50.234;19.292;2022-07-23T02:17:05;19.50;;;13.70;;
69126;SDS011;56688;50.234;19.292;2022-07-23T02:19:34;19.80;;;13.70;;
69126;SDS011;56688;50.234;19.292;2022-07-23T02:22:01;16.70;;;13.30;;
69126;SDS011;56688;50.234;19.292;2022-07-23T02:24:28;18.90;;;13.20;;
69126;SDS011;56688;50.234;19.292;2022-07-23T02:26:54;16.90;;;13.20;;
69126;SDS011;56688;50.234;19.292;2022-07-23T02:29:21;21.20;;;13.20;;
69126;SDS011;56688;50.234;19.292;2022-07-23T02:31:48;18.20;;;13.80;;
69126;SDS011;56688;50.234;19.292;2022-07-23T02:34:15;19.40;;;15.30;;
69126;SDS011;56688;50.234;19.292;2022-07-23T02:36:42;21.30;;;14.90;;
69126;SDS011;56688;50.234;19.292;2022-07-23T02:39:10;18.50;;;14.30;;
69126;SDS011;56688;50.234;19.292;2022-07-23T02:41:37;17.40;;;13.80;;
69126;SDS011;56688;50.234;19.292;2022-07-23T02:44:04;18.50;;;13.80;;
69126;SDS011;56688;50.234;19.292;2022-07-23T02:46:32;21.20;;;13.20;;
69126;SDS011;56688;50.234;19.292;2022-07-23T02:48:59;15.80;;;13.50;;
69126;SDS011;56688;50.234;19.292;2022-07-23T02:51:29;17.10;;;13.80;;
69126;SDS011;56688;50.234;19.292;2022-07-23T02:53:57;21.10;;;15.80;;
69126;SDS011;56688;50.234;19.292;2022-07-23T02:56:25;17.80;;;13.30;;
69126;SDS011;56688;50.234;19.292;2022-07-23T02:58:52;19.50;;;14.10;;
69126;SDS011;56688;50.234;19.292;2022-07-23T03:01:19;20.30;;;14.30;;
69126;SDS011;56688;50.234;19.292;2022-07-23T03:03:46;17.70;;;14.00;;
69126;SDS011;56688;50.234;19.292;2022-07-23T03:06:14;18.00;;;14.10;;
69126;SDS011;56688;50.234;19.292;2022-07-23T03:08:40;18.90;;;14.60;;
69126;SDS011;56688;50.234;19.292;2022-07-23T03:11:07;20.20;;;14.10;;
69126;SDS011;56688;50.234;19.292;2022-07-23T03:13:38;19.00;;;14.60;;
69126;SDS011;56688;50.234;19.292;2022-07-23T03:16:06;21.80;;;14.60;;
69126;SDS011;56688;50.234;19.292;2022-07-23T03:18:35;19.10;;;13.80;;
69126;SDS011;56688;50.234;19.292;2022-07-23T03:21:06;18.60;;;13.80;;
69126;SDS011;56688;50.234;19.292;2022-07-23T03:23:36;18.60;;;13.80;;
69126;SDS011;56688;50.234;19.292;2022-07-23T03:26:03;18.30;;;13.50;;
69126;SDS011;56688;50.234;19.292;2022-07-23T03:28:30;19.80;;;14.40;;
69126;SDS011;56688;50.234;19.292;2022-07-23T03:30:57;20.50;;;15.10;;
69126;SDS011;56688;50.234;19.292;2022-07-23T03:33:24;20.20;;;14.00;;
69126;SDS011;56688;50.234;19.292;2022-07-23T03:35:52;16.80;;;13.10;;
69126;SDS011;56688;50.234;19.292;2022-07-23T03:38:23;17.20;;;13.60;;
69126;SDS011;56688;50.234;19.292;2022-07-23T03:40:50;21.30;;;14.20;;
69126;SDS011;56688;50.234;19.292;2022-07-23T03:43:17;25.50;;;15.20;;
69126;SDS011;56688;50.234;19.292;2022-07-23T03:45:45;26.40;;;16.20;;
69126;SDS011;56688;50.234;19.292;2022-07-23T03:48:12;27.50;;;15.90;;
69126;SDS011;56688;50.234;19.292;2022-07-23T03:50:39;20.80;;;15.10;;
69126;SDS011;56688;50.234;19.292;2022-07-23T03:53:05;20.60;;;14.00;;
69126;SDS011;56688;50.234;19.292;2022-07-23T03:55:33;18.40;;;13.60;;
69126;SDS011;56688;50.234;19.292;2022-07-23T03:58:00;19.50;;;14.00;;
69126;SDS011;56688;50.234;19.292;2022-07-23T04:00:27;22.40;;;13.90;;
69126;SDS011;56688;50.234;19.292;2022-07-23T04:02:55;18.20;;;14.20;;
69126;SDS011;56688;50.234;19.292;2022-07-23T04:05:22;18.70;;;13.90;;
69126;SDS011;56688;50.234;19.292;2022-07-23T04:07:51;17.40;;;14.00;;
69126;SDS011;56688;50.234;19.292;2022-07-23T04:10:18;21.30;;;14.30;;
69126;SDS011;56688;50.234;19.292;2022-07-23T04:12:45;17.70;;;14.00;;
69126;SDS011;56688;50.234;19.292;2022-07-23T04:15:12;18.00;;;13.20;;
69126;SDS011;56688;50.234;19.292;2022-07-23T04:17:39;17.40;;;13.60;;
69126;SDS011;56688;50.234;19.292;2022-07-23T04:20:07;19.50;;;13.70;;
69126;SDS011;56688;50.234;19.292;2022-07-23T04:22:40;19.90;;;14.10;;
69126;SDS011;56688;50.234;19.292;2022-07-23T04:25:08;18.40;;;14.20;;
69126;SDS011;56688;50.234;19.292;2022-07-23T04:27:36;16.70;;;14.00;;
69126;SDS011;56688;50.234;19.292;2022-07-23T04:30:03;20.20;;;15.00;;
69126;SDS011;56688;50.234;19.292;2022-07-23T04:32:30;18.10;;;14.90;;
69126;SDS011;56688;50.234;19.292;2022-07-23T04:34:58;20.20;;;15.80;;
69126;SDS011;56688;50.234;19.292;2022-07-23T04:37:25;22.30;;;15.80;;
69126;SDS011;56688;50.234;19.292;2022-07-23T04:39:52;20.00;;;17.00;;
69126;SDS011;56688;50.234;19.292;2022-07-23T04:42:23;23.80;;;16.20;;
69126;SDS011;56688;50.234;19.292;2022-07-23T04:44:50;23.60;;;16.30;;
69126;SDS011;56688;50.234;19.292;2022-07-23T04:47:18;22.00;;;16.00;;
69126;SDS011;56688;50.234;19.292;2022-07-23T04:49:48;20.10;;;16.30;;
69126;SDS011;56688;50.234;19.292;2022-07-23T04:52:15;26.30;;;16.40;;
69126;SDS011;56688;50.234;19.292;2022-07-23T04:54:42;20.50;;;15.60;;
69126;SDS011;56688;50.234;19.292;2022-07-23T04:57:09;21.10;;;17.00;;
69126;SDS011;56688;50.234;19.292;2022-07-23T04:59:36;21.00;;;15.40;;
69126;SDS011;56688;50.234;19.292;2022-07-23T05:02:04;26.90;;;16.20;;
69126;SDS011;56688;50.234;19.292;2022-07-23T05:04:31;22.30;;;15.30;;
69126;SDS011;56688;50.234;19.292;2022-07-23T05:06:58;19.60;;;15.30;;
69126;SDS011;56688;50.234;19.292;2022-07-23T05:09:26;20.30;;;16.30;;
69126;SDS011;56688;50.234;19.292;2022-07-23T05:11:53;23.40;;;15.90;;
69126;SDS011;56688;50.234;19.292;2022-07-23T05:14:21;18.70;;;15.90;;
69126;SDS011;56688;50.234;19.292;2022-07-23T05:16:48;27.10;;;16.30;;
69126;SDS011;56688;50.234;19.292;2022-07-23T05:19:20;22.50;;;17.30;;
69126;SDS011;56688;50.234;19.292;2022-07-23T05:21:50;23.60;;;17.00;;
69126;SDS011;56688;50.234;19.292;2022-07-23T05:24:17;27.20;;;17.60;;
69126;SDS011;56688;50.234;19.292;2022-07-23T05:26:45;20.90;;;17.50;;
69126;SDS011;56688;50.234;19.292;2022-07-23T05:29:12;21.20;;;17.70;;
69126;SDS011;56688;50.234;19.292;2022-07-23T05:31:39;27.40;;;18.50;;
69126;SDS011;56688;50.234;19.292;2022-07-23T05:34:06;21.50;;;18.10;;
69126;SDS011;56688;50.234;19.292;2022-07-23T05:36:34;21.40;;;17.00;;
69126;SDS011;56688;50.234;19.292;2022-07-23T05:39:03;22.90;;;16.50;;
69126;SDS011;56688;50.234;19.292;2022-07-23T05:41:33;19.70;;;13.80;;
69126;SDS011;56688;50.234;19.292;2022-07-23T05:44:01;24.90;;;17.20;;
69126;SDS011;56688;50.234;19.292;2022-07-23T05:46:29;25.70;;;17.10;;
69126;SDS011;56688;50.234;19.292;2022-07-23T05:49:00;19.10;;;15.70;;
69126;SDS011;56688;50.234;19.292;2022-07-23T05:51:43;19.00;;;16.20;;
69126;SDS011;56688;50.234;19.292;2022-07-23T05:54:12;23.50;;;18.10;;
69126;SDS011;56688;50.234;19.292;2022-07-23T05:56:39;23.20;;;17.70;;
69126;SDS011;56688;50.234;19.292;2022-07-23T05:59:06;27.50;;;17.60;;
69126;SDS011;56688;50.234;19.292;2022-07-23T06:01:33;21.60;;;17.00;;
69126;SDS011;56688;50.234;19.292;2022-07-23T06:04:05;21.00;;;16.80;;
69126;SDS011;56688;50.234;19.292;2022-07-23T06:06:35;20.20;;;15.20;;
69126;SDS011;56688;50.234;19.292;2022-07-23T06:09:02;22.50;;;16.10;;
69126;SDS011;56688;50.234;19.292;2022-07-23T06:11:30;17.80;;;15.40;;
69126;SDS011;56688;50.234;19.292;2022-07-23T06:13:57;19.10;;;15.40;;
69126;SDS011;56688;50.234;19.292;2022-07-23T06:16:33;17.10;;;15.20;;
69126;SDS011;56688;50.234;19.292;2022-07-23T06:19:00;18.80;;;15.00;;
69126;SDS011;56688;50.234;19.292;2022-07-23T06:21:28;21.60;;;16.10;;
69126;SDS011;56688;50.234;19.292;2022-07-23T06:24:14;21.00;;;16.20;;
69126;SDS011;56688;50.234;19.292;2022-07-23T06:26:41;18.70;;;15.00;;
69126;SDS011;56688;50.234;19.292;2022-07-23T06:29:08;18.50;;;14.20;;
69126;SDS011;56688;50.234;19.292;2022-07-23T06:31:35;18.30;;;15.10;;
69126;SDS011;56688;50.234;19.292;2022-07-23T06:34:02;20.20;;;14.90;;
69126;SDS011;56688;50.234;19.292;2022-07-23T06:36:29;22.10;;;13.60;;
69126;SDS011;56688;50.234;19.292;2022-07-23T06:38:57;16.60;;;14.00;;
69126;SDS011;56688;50.234;19.292;2022-07-23T06:41:24;16.10;;;13.00;;
69126;SDS011;56688;50.234;19.292;2022-07-23T06:43:51;17.00;;;13.80;;
69126;SDS011;56688;50.234;19.292;2022-07-23T06:46:20;15.20;;;13.60;;
69126;SDS011;56688;50.234;19.292;2022-07-23T06:48:48;16.50;;;13.60;;
69126;SDS011;56688;50.234;19.292;2022-07-23T06:51:15;15.90;;;14.00;;
69126;SDS011;56688;50.234;19.292;2022-07-23T06:53:43;16.00;;;13.10;;
69126;SDS011;56688;50.234;19.292;2022-07-23T06:56:10;15.90;;;11.90;;
69126;SDS011;56688;50.234;19.292;2022-07-23T06:58:38;18.00;;;13.00;;
69126;SDS011;56688;50.234;19.292;2022-07-23T07:01:05;19.10;;;13.20;;
69126;SDS011;56688;50.234;19.292;2022-07-23T07:03:32;13.40;;;11.10;;
69126;SDS011;56688;50.234;19.292;2022-07-23T07:05:59;18.40;;;12.50;;
69126;SDS011;56688;50.234;19.292;2022-07-23T07:08:26;15.50;;;12.20;;
69126;SDS011;56688;50.234;19.292;2022-07-23T07:10:53;16.60;;;11.40;;
69126;SDS011;56688;50.234;19.292;2022-07-23T07:13:20;12.50;;;10.70;;
69126;SDS011;56688;50.234;19.292;2022-07-23T07:15:47;12.90;;;9.30;;
69126;SDS011;56688;50.234;19.292;2022-07-23T07:18:14;14.00;;;9.70;;
69126;SDS011;56688;50.234;19.292;2022-07-23T07:20:41;14.50;;;11.10;;
69126;SDS011;56688;50.234;19.292;2022-07-23T07:23:08;11.90;;;9.90;;
69126;SDS011;56688;50.234;19.292;2022-07-23T07:25:34;13.00;;;10.40;;
69126;SDS011;56688;50.234;19.292;2022-07-23T07:28:01;13.40;;;9.80;;
69126;SDS011;56688;50.234;19.292;2022-07-23T07:30:28;12.70;;;9.70;;
69126;SDS011;56688;50.234;19.292;2022-07-23T07:32:59;11.80;;;10.30;;
69126;SDS011;56688;50.234;19.292;2022-07-23T07:35:27;11.00;;;9.80;;
69126;SDS011;56688;50.234;19.292;2022-07-23T07:37:54;11.80;;;9.00;;
69126;SDS011;56688;50.234;19.292;2022-07-23T07:40:21;9.70;;;8.10;;
69126;SDS011;56688;50.234;19.292;2022-07-23T07:42:49;11.30;;;8.90;;
69126;SDS011;56688;50.234;19.292;2022-07-23T07:45:19;9.60;;;7.70;;
69126;SDS011;56688;50.234;19.292;2022-07-23T07:47:47;11.50;;;8.70;;
69126;SDS011;56688;50.234;19.292;2022-07-23T07:50:14;11.00;;;8.00;;
69126;SDS011;56688;50.234;19.292;2022-07-23T07:52:42;13.80;;;8.90;;
69126;SDS011;56688;50.234;19.292;2022-07-23T07:55:09;13.00;;;8.30;;
69126;SDS011;56688;50.234;19.292;2022-07-23T07:57:37;10.50;;;8.10;;
69126;SDS011;56688;50.234;19.292;2022-07-23T08:00:05;15.60;;;7.60;;
69126;SDS011;56688;50.234;19.292;2022-07-23T08:05:11;10.80;;;8.30;;
69126;SDS011;56688;50.234;19.292;2022-07-23T08:07:39;10.80;;;8.30;;
69126;SDS011;56688;50.234;19.292;2022-07-23T08:10:07;11.00;;;8.20;;
69126;SDS011;56688;50.234;19.292;2022-07-23T08:12:38;13.70;;;8.50;;
69126;SDS011;56688;50.234;19.292;2022-07-23T08:15:07;10.80;;;7.80;;
69126;SDS011;56688;50.234;19.292;2022-07-23T08:17:40;13.80;;;7.80;;
69126;SDS011;56688;50.234;19.292;2022-07-23T08:20:09;10.10;;;7.40;;
69126;SDS011;56688;50.234;19.292;2022-07-23T08:25:22;9.80;;;7.20;;
69126;SDS011;56688;50.234;19.292;2022-07-23T08:27:57;9.90;;;7.40;;
69126;SDS011;56688;50.234;19.292;2022-07-23T08:30:26;11.10;;;7.50;;
69126;SDS011;56688;50.234;19.292;2022-07-23T08:32:55;10.30;;;7.10;;
69126;SDS011;56688;50.234;19.292;2022-07-23T08:35:25;7.70;;;6.70;;
69126;SDS011;56688;50.234;19.292;2022-07-23T08:37:54;11.00;;;6.90;;
69126;SDS011;56688;50.234;19.292;2022-07-23T08:40:23;9.30;;;6.70;;
69126;SDS011;56688;50.234;19.292;2022-07-23T08:42:52;9.60;;;7.00;;
69126;SDS011;56688;50.234;19.292;2022-07-23T08:45:21;8.80;;;6.50;;
69126;SDS011;56688;50.234;19.292;2022-07-23T08:47:52;11.50;;;6.50;;
69126;SDS011;56688;50.234;19.292;2022-07-23T08:50:23;6.20;;;5.60;;
69126;SDS011;56688;50.234;19.292;2022-07-23T08:52:51;10.60;;;6.10;;
69126;SDS011;56688;50.234;19.292;2022-07-23T08:55:20;7.20;;;5.80;;
69126;SDS011;56688;50.234;19.292;2022-07-23T08:57:50;8.80;;;6.40;;
69126;SDS011;56688;50.234;19.292;2022-07-23T09:00:19;10.10;;;6.10;;
69126;SDS011;56688;50.234;19.292;2022-07-23T09:02:48;6.40;;;4.90;;
69126;SDS011;56688;50.234;19.292;2022-07-23T09:05:17;9.00;;;6.30;;
69126;SDS011;56688;50.234;19.292;2022-07-23T09:10:49;7.30;;;5.60;;
69126;SDS011;56688;50.234;19.292;2022-07-23T09:16:03;8.10;;;4.70;;
69126;SDS011;56688;50.234;19.292;2022-07-23T09:21:05;7.70;;;5.60;;
69126;SDS011;56688;50.234;19.292;2022-07-23T09:23:43;8.40;;;5.90;;
69126;SDS011;56688;50.234;19.292;2022-07-23T09:34:25;5.50;;;4.60;;
69126;SDS011;56688;50.234;19.292;2022-07-23T09:36:54;6.70;;;4.60;;
69126;SDS011;56688;50.234;19.292;2022-07-23T09:39:27;5.20;;;4.60;;
69126;SDS011;56688;50.234;19.292;2022-07-23T09:41:56;7.30;;;4.90;;
69126;SDS011;56688;50.234;19.292;2022-07-23T09:44:24;6.60;;;4.20;;
69126;SDS011;56688;50.234;19.292;2022-07-23T09:46:57;12.60;;;5.40;;
69126;SDS011;56688;50.234;19.292;2022-07-23T09:49:26;6.40;;;5.20;;
69126;SDS011;56688;50.234;19.292;2022-07-23T09:51:56;5.50;;;5.00;;
69126;SDS011;56688;50.234;19.292;2022-07-23T09:54:27;6.10;;;4.90;;
69126;SDS011;56688;50.234;19.292;2022-07-23T09:56:59;6.70;;;4.30;;
69126;SDS011;56688;50.234;19.292;2022-07-23T09:59:29;6.10;;;4.50;;
69126;SDS011;56688;50.234;19.292;2022-07-23T10:01:58;9.50;;;7.30;;
69126;SDS011;56688;50.234;19.292;2022-07-23T10:04:28;13.40;;;6.80;;
69126;SDS011;56688;50.234;19.292;2022-07-23T10:07:11;6.90;;;5.60;;
69126;SDS011;56688;50.234;19.292;2022-07-23T10:09:56;6.30;;;5.00;;
69126;SDS011;56688;50.234;19.292;2022-07-23T10:12:42;5.70;;;5.00;;
69126;SDS011;56688;50.234;19.292;2022-07-23T10:15:30;25.60;;;6.00;;
69126;SDS011;56688;50.234;19.292;2022-07-23T10:17:57;7.60;;;5.30;;
69126;SDS011;56688;50.234;19.292;2022-07-23T10:20:24;6.90;;;5.70;;
69126;SDS011;56688;50.234;19.292;2022-07-23T10:25:37;8.60;;;5.30;;
69126;SDS011;56688;50.234;19.292;2022-07-23T10:31:00;5.70;;;4.50;;
69126;SDS011;56688;50.234;19.292;2022-07-23T10:39:25;5.10;;;4.00;;
69126;SDS011;56688;50.234;19.292;2022-07-23T10:44:39;7.00;;;4.40;;
69126;SDS011;56688;50.234;19.292;2022-07-23T10:47:09;5.10;;;4.50;;
69126;SDS011;56688;50.234;19.292;2022-07-23T10:49:59;6.40;;;4.90;;
69126;SDS011;56688;50.234;19.292;2022-07-23T10:58:03;7.10;;;4.80;;
69126;SDS011;56688;50.234;19.292;2022-07-23T11:00:32;6.70;;;5.10;;
69126;SDS011;56688;50.234;19.292;2022-07-23T11:03:05;7.80;;;5.10;;
69126;SDS011;56688;50.234;19.292;2022-07-23T11:05:58;5.70;;;4.90;;
69126;SDS011;56688;50.234;19.292;2022-07-23T11:08:26;7.40;;;5.20;;
69126;SDS011;56688;50.234;19.292;2022-07-23T11:10:54;7.60;;;5.60;;
69126;SDS011;56688;50.234;19.292;2022-07-23T11:13:36;8.70;;;5.40;;
69126;SDS011;56688;50.234;19.292;2022-07-23T11:31:54;6.50;;;5.40;;
69126;SDS011;56688;50.234;19.292;2022-07-23T11:34:27;8.60;;;5.90;;
69126;SDS011;56688;50.234;19.292;2022-07-23T11:37:03;6.70;;;5.20;;
69126;SDS011;56688;50.234;19.292;2022-07-23T11:39:32;8.10;;;6.90;;
69126;SDS011;56688;50.234;19.292;2022-07-23T11:42:00;7.50;;;5.80;;
69126;SDS011;56688;50.234;19.292;2022-07-23T11:44:35;8.00;;;5.80;;
69126;SDS011;56688;50.234;19.292;2022-07-23T11:47:05;7.40;;;5.20;;
69126;SDS011;56688;50.234;19.292;2022-07-23T11:49:36;6.40;;;5.50;;
69126;SDS011;56688;50.234;19.292;2022-07-23T11:52:04;9.50;;;5.50;;
69126;SDS011;56688;50.234;19.292;2022-07-23T11:54:35;9.40;;;5.40;;
69126;SDS011;56688;50.234;19.292;2022-07-23T11:57:06;8.10;;;5.40;;
69126;SDS011;56688;50.234;19.292;2022-07-23T11:59:33;5.60;;;4.90;;
69126;SDS011;56688;50.234;19.292;2022-07-23T12:02:03;9.20;;;5.40;;
69126;SDS011;56688;50.234;19.292;2022-07-23T12:09:52;7.30;;;5.10;;
69126;SDS011;56688;50.234;19.292;2022-07-23T12:12:19;7.50;;;5.30;;
69126;SDS011;56688;50.234;19.292;2022-07-23T12:14:48;6.40;;;5.10;;
69126;SDS011;56688;50.234;19.292;2022-07-23T12:17:27;6.10;;;5.30;;
69126;SDS011;56688;50.234;19.292;2022-07-23T12:19:57;9.50;;;5.30;;
69126;SDS011;56688;50.234;19.292;2022-07-23T12:22:25;7.60;;;5.50;;
69126;SDS011;56688;50.234;19.292;2022-07-23T12:25:00;10.30;;;5.60;;
69126;SDS011;56688;50.234;19.292;2022-07-23T12:27:29;8.30;;;5.40;;
69126;SDS011;56688;50.234;19.292;2022-07-23T12:29:56;5.30;;;4.80;;
69126;SDS011;56688;50.234;19.292;2022-07-23T12:35:09;5.60;;;4.90;;
69126;SDS011;56688;50.234;19.292;2022-07-23T12:37:37;5.80;;;5.20;;
69126;SDS011;56688;50.234;19.292;2022-07-23T12:42:57;10.70;;;5.60;;
69126;SDS011;56688;50.234;19.292;2022-07-23T12:45:25;9.60;;;5.70;;
69126;SDS011;56688;50.234;19.292;2022-07-23T12:47:58;7.30;;;5.00;;
69126;SDS011;56688;50.234;19.292;2022-07-23T12:55:31;9.10;;;5.90;;
69126;SDS011;56688;50.234;19.292;2022-07-23T12:58:19;5.50;;;5.00;;
69126;SDS011;56688;50.234;19.292;2022-07-23T13:00:51;16.40;;;5.70;;
69126;SDS011;56688;50.234;19.292;2022-07-23T13:03:28;9.70;;;6.00;;
69126;SDS011;56688;50.234;19.292;2022-07-23T13:06:06;11.00;;;5.20;;
69126;SDS011;56688;50.234;19.292;2022-07-23T13:08:36;9.50;;;5.80;;
69126;SDS011;56688;50.234;19.292;2022-07-23T13:11:05;12.60;;;5.80;;
69126;SDS011;56688;50.234;19.292;2022-07-23T13:13:33;9.00;;;6.00;;
69126;SDS011;56688;50.234;19.292;2022-07-23T13:16:02;7.70;;;5.90;;
69126;SDS011;56688;50.234;19.292;2022-07-23T13:18:36;6.00;;;5.40;;
69126;SDS011;56688;50.234;19.292;2022-07-23T13:21:03;6.60;;;5.80;;
69126;SDS011;56688;50.234;19.292;2022-07-23T13:23:31;6.20;;;5.60;;
69126;SDS011;56688;50.234;19.292;2022-07-23T13:25:58;6.30;;;5.70;;
69126;SDS011;56688;50.234;19.292;2022-07-23T13:28:25;9.20;;;6.60;;
69126;SDS011;56688;50.234;19.292;2022-07-23T13:30:53;6.80;;;6.10;;
69126;SDS011;56688;50.234;19.292;2022-07-23T13:33:20;9.60;;;6.00;;
69126;SDS011;56688;50.234;19.292;2022-07-23T13:35:49;8.90;;;5.50;;
69126;SDS011;56688;50.234;19.292;2022-07-23T13:38:18;9.80;;;6.10;;
69126;SDS011;56688;50.234;19.292;2022-07-23T13:40:47;6.90;;;5.90;;
69126;SDS011;56688;50.234;19.292;2022-07-23T13:43:17;7.20;;;5.80;;
69126;SDS011;56688;50.234;19.292;2022-07-23T13:45:49;6.30;;;5.70;;
69126;SDS011;56688;50.234;19.292;2022-07-23T13:48:18;8.80;;;5.70;;
69126;SDS011;56688;50.234;19.292;2022-07-23T13:50:46;9.00;;;6.30;;
69126;SDS011;56688;50.234;19.292;2022-07-23T13:53:16;10.00;;;6.20;;
69126;SDS011;56688;50.234;19.292;2022-07-23T13:55:45;7.30;;;5.90;;
69126;SDS011;56688;50.234;19.292;2022-07-23T13:58:14;8.70;;;6.00;;
69126;SDS011;56688;50.234;19.292;2022-07-23T14:00:43;9.60;;;6.20;;
69126;SDS011;56688;50.234;19.292;2022-07-23T14:03:19;10.00;;;5.80;;
69126;SDS011;56688;50.234;19.292;2022-07-23T14:05:50;7.30;;;6.00;;
69126;SDS011;56688;50.234;19.292;2022-07-23T14:08:22;8.00;;;6.20;;
69126;SDS011;56688;50.234;19.292;2022-07-23T14:10:49;11.40;;;6.10;;
69126;SDS011;56688;50.234;19.292;2022-07-23T14:13:16;8.10;;;6.30;;
69126;SDS011;56688;50.234;19.292;2022-07-23T14:15:47;8.60;;;6.30;;
69126;SDS011;56688;50.234;19.292;2022-07-23T14:18:16;9.20;;;6.40;;
69126;SDS011;56688;50.234;19.292;2022-07-23T14:20:44;8.20;;;6.40;;
69126;SDS011;56688;50.234;19.292;2022-07-23T14:23:12;10.00;;;6.70;;
69126;SDS011;56688;50.234;19.292;2022-07-23T14:25:39;8.20;;;6.80;;
69126;SDS011;56688;50.234;19.292;2022-07-23T14:28:06;10.00;;;6.70;;
69126;SDS011;56688;50.234;19.292;2022-07-23T14:30:34;9.20;;;6.90;;
69126;SDS011;56688;50.234;19.292;2022-07-23T14:33:01;10.40;;;6.80;;
69126;SDS011;56688;50.234;19.292;2022-07-23T14:35:29;11.90;;;7.90;;
69126;SDS011;56688;50.234;19.292;2022-07-23T14:37:56;13.10;;;7.70;;
69126;SDS011;56688;50.234;19.292;2022-07-23T14:40:24;11.40;;;7.20;;
69126;SDS011;56688;50.234;19.292;2022-07-23T14:42:51;10.10;;;7.90;;
69126;SDS011;56688;50.234;19.292;2022-07-23T14:45:19;13.10;;;8.20;;
69126;SDS011;56688;50.234;19.292;2022-07-23T14:47:47;12.50;;;8.60;;
69126;SDS011;56688;50.234;19.292;2022-07-23T14:50:14;13.90;;;8.90;;
69126;SDS011;56688;50.234;19.292;2022-07-23T14:52:41;9.90;;;7.70;;
69126;SDS011;56688;50.234;19.292;2022-07-23T14:55:08;18.40;;;9.60;;
69126;SDS011;56688;50.234;19.292;2022-07-23T14:57:35;16.00;;;9.00;;
69126;SDS011;56688;50.234;19.292;2022-07-23T15:00:03;13.90;;;8.70;;
69126;SDS011;56688;50.234;19.292;2022-07-23T15:02:34;11.20;;;9.10;;
69126;SDS011;56688;50.234;19.292;2022-07-23T15:05:02;13.80;;;9.70;;
69126;SDS011;56688;50.234;19.292;2022-07-23T15:07:32;18.40;;;8.70;;
69126;SDS011;56688;50.234;19.292;2022-07-23T15:09:59;12.00;;;8.60;;
69126;SDS011;56688;50.234;19.292;2022-07-23T15:12:28;13.80;;;8.90;;
69126;SDS011;56688;50.234;19.292;2022-07-23T15:14:55;14.60;;;8.70;;
69126;SDS011;56688;50.234;19.292;2022-07-23T15:17:22;21.90;;;8.60;;
69126;SDS011;56688;50.234;19.292;2022-07-23T15:19:52;20.20;;;9.00;;
69126;SDS011;56688;50.234;19.292;2022-07-23T15:22:19;15.80;;;9.10;;
69126;SDS011;56688;50.234;19.292;2022-07-23T15:24:47;26.10;;;8.70;;
69126;SDS011;56688;50.234;19.292;2022-07-23T15:27:14;22.70;;;8.80;;
69126;SDS011;56688;50.234;19.292;2022-07-23T15:29:43;17.60;;;9.50;;
69126;SDS011;56688;50.234;19.292;2022-07-23T15:32:11;21.60;;;8.50;;
69126;SDS011;56688;50.234;19.292;2022-07-23T15:34:39;21.90;;;8.80;;
69126;SDS011;56688;50.234;19.292;2022-07-23T15:37:06;13.90;;;8.40;;
69126;SDS011;56688;50.234;19.292;2022-07-23T15:39:39;19.50;;;9.30;;
69126;SDS011;56688;50.234;19.292;2022-07-23T15:42:07;16.10;;;8.10;;